createdAt,value
2019-05-30T00:01:28.720Z,98307.11
2019-05-30T00:03:56.017Z,98309.55
2019-05-30T00:06:22.745Z,98307.35
2019-05-30T00:08:49.308Z,98309.51
2019-05-30T00:11:15.946Z,98307.58
2019-05-30T00:13:42.586Z,98307.84
2019-05-30T00:16:09.071Z,98305.66
2019-05-30T00:18:35.829Z,98314.35
2019-05-30T00:21:02.973Z,98313.80
2019-05-30T00:23:29.574Z,98315.97
2019-05-30T00:25:57.180Z,98319.75
2019-05-30T00:28:23.764Z,98317.83
2019-05-30T00:30:50.356Z,98319.94
2019-05-30T00:33:17.007Z,98319.40
2019-05-30T00:35:43.887Z,98319.91
2019-05-30T00:38:10.503Z,98316.87
2019-05-30T00:40:37.051Z,98323.92
2019-05-30T00:43:04.252Z,98320.09
2019-05-30T00:45:30.914Z,98321.97
2019-05-30T00:47:58.072Z,98318.70
2019-05-30T00:50:24.833Z,98317.59
2019-05-30T00:52:51.494Z,98310.75
2019-05-30T00:55:18.222Z,98315.07
2019-05-30T00:57:44.859Z,98315.31
2019-05-30T01:00:12.232Z,98317.19
2019-05-30T01:02:38.894Z,98317.46
2019-05-30T01:05:07.668Z,98311.73
2019-05-30T01:07:34.406Z,98309.53
2019-05-30T01:10:01.073Z,98321.98
2019-05-30T01:12:27.942Z,98318.69
2019-05-30T01:14:54.689Z,98322.73
2019-05-30T01:17:21.197Z,98329.79
2019-05-30T01:19:47.781Z,98322.44
2019-05-30T01:22:14.675Z,98324.87
2019-05-30T01:24:41.585Z,98328.36
2019-05-30T01:27:08.129Z,98326.16
2019-05-30T01:29:34.666Z,98324.25
2019-05-30T01:32:21.062Z,98323.13
2019-05-30T01:34:47.946Z,98323.06
2019-05-30T01:37:14.497Z,98322.50
2019-05-30T01:39:41.112Z,98325.73
2019-05-30T01:42:07.982Z,98324.92
2019-05-30T01:44:34.747Z,98324.61
2019-05-30T01:47:01.984Z,98328.11
2019-05-30T01:49:28.521Z,98325.09
2019-05-30T01:51:55.059Z,98324.81
2019-05-30T01:54:21.682Z,98321.00
2019-05-30T01:56:48.381Z,98322.05
2019-05-30T01:59:14.959Z,98323.38
2019-05-30T02:01:41.919Z,98324.70
2019-05-30T02:04:09.457Z,98324.67
2019-05-30T02:06:38.167Z,98329.28
2019-05-30T02:09:05.835Z,98323.83
2019-05-30T02:11:32.421Z,98322.19
2019-05-30T02:13:59.555Z,98321.34
2019-05-30T02:16:26.409Z,98323.48
2019-05-30T02:18:52.937Z,98333.48
2019-05-30T02:21:19.564Z,98331.78
2019-05-30T02:23:46.087Z,98333.61
2019-05-30T02:26:12.613Z,98335.19
2019-05-30T02:28:39.235Z,98333.30
2019-05-30T02:31:07.149Z,98334.66
2019-05-30T02:33:34.248Z,98333.80
2019-05-30T02:36:01.725Z,98333.77
2019-05-30T02:38:29.200Z,98341.88
2019-05-30T02:40:55.754Z,98343.19
2019-05-30T02:43:22.390Z,98340.70
2019-05-30T02:45:48.938Z,98344.45
2019-05-30T02:48:15.961Z,98352.55
2019-05-30T02:50:42.649Z,98362.00
2019-05-30T02:53:10.983Z,98360.11
2019-05-30T02:55:38.357Z,98365.24
2019-05-30T02:58:06.195Z,98362.53
2019-05-30T03:00:34.879Z,98366.60
2019-05-30T03:03:02.331Z,98360.86
2019-05-30T03:05:30.062Z,98362.46
2019-05-30T03:07:56.825Z,98362.67
2019-05-30T03:10:23.443Z,98361.28
2019-05-30T03:12:50.411Z,98372.91
2019-05-30T03:15:17.581Z,98370.20
2019-05-30T03:17:44.355Z,98369.09
2019-05-30T03:20:21.473Z,98370.98
2019-05-30T03:22:39.808Z,98374.19
2019-05-30T03:25:07.869Z,98372.51
2019-05-30T03:27:35.004Z,98371.97
2019-05-30T03:30:05.124Z,98376.81
2019-05-30T03:33:02.287Z,98378.95
2019-05-30T03:34:58.815Z,98378.41
2019-05-30T03:37:29.291Z,98385.19
2019-05-30T03:39:54.204Z,98384.61
2019-05-30T03:42:20.808Z,98387.08
2019-05-30T03:44:47.504Z,98391.14
2019-05-30T03:47:15.828Z,98392.50
2019-05-30T03:49:43.183Z,98394.09
2019-05-30T03:52:14.475Z,98401.98
2019-05-30T03:54:40.912Z,98398.98
2019-05-30T03:57:18.807Z,98398.98
2019-05-30T03:59:49.359Z,98392.21
2019-05-30T04:02:56.295Z,98411.71
2019-05-30T04:05:13.076Z,98409.53
2019-05-30T04:07:43.341Z,98411.42
2019-05-30T04:10:11.418Z,98417.66
2019-05-30T04:12:59.359Z,98412.53
2019-05-30T04:15:30.925Z,98414.75
2019-05-30T04:17:57.692Z,98418.03
2019-05-30T04:20:30.021Z,98418.03
2019-05-30T04:22:56.818Z,98431.58
2019-05-30T04:25:23.718Z,98432.66
2019-05-30T04:27:50.361Z,98429.13
2019-05-30T04:30:18.508Z,98425.06
2019-05-30T04:32:45.275Z,98428.88
2019-05-30T04:35:12.341Z,98438.08
2019-05-30T04:37:38.829Z,98439.44
2019-05-30T04:40:05.914Z,98442.97
2019-05-30T04:42:32.464Z,98444.03
2019-05-30T04:44:59.003Z,98441.06
2019-05-30T04:47:25.621Z,98439.71
2019-05-30T04:49:52.232Z,98449.45
2019-05-30T04:52:23.630Z,98454.88
2019-05-30T04:54:47.577Z,98461.64
2019-05-30T04:57:14.972Z,98457.62
2019-05-30T04:59:41.994Z,98458.45
2019-05-30T05:02:08.677Z,98452.53
2019-05-30T05:04:35.201Z,98452.58
2019-05-30T05:07:01.914Z,98457.79
2019-05-30T05:09:28.603Z,98455.41
2019-05-30T05:11:55.126Z,98459.80
2019-05-30T05:14:22.699Z,98435.20
2019-05-30T05:16:49.505Z,98460.66
2019-05-30T05:19:17.210Z,98462.02
2019-05-30T05:21:44.305Z,98460.95
2019-05-30T05:24:10.861Z,98467.73
2019-05-30T05:26:37.486Z,98459.06
2019-05-30T05:29:04.290Z,98463.13
2019-05-30T05:31:31.012Z,98461.53
2019-05-30T05:33:57.597Z,98460.22
2019-05-30T05:36:25.221Z,98463.25
2019-05-30T05:38:51.762Z,98464.36
2019-05-30T05:41:18.277Z,98460.83
2019-05-30T05:43:44.894Z,98460.33
2019-05-30T05:46:11.650Z,98460.66
2019-05-30T05:48:38.276Z,98467.47
2019-05-30T05:51:05.005Z,98466.48
2019-05-30T05:53:31.668Z,98472.23
2019-05-30T05:55:58.274Z,98469.13
2019-05-30T05:58:26.433Z,98474.66
2019-05-30T06:00:53.329Z,98473.62
2019-05-30T06:03:20.362Z,98479.97
2019-05-30T06:05:52.995Z,98482.80
2019-05-30T06:08:15.519Z,98469.57
2019-05-30T06:10:42.785Z,98471.25
2019-05-30T06:13:09.430Z,98475.92
2019-05-30T06:15:36.090Z,98479.02
2019-05-30T06:18:02.747Z,98470.92
2019-05-30T06:20:29.385Z,98475.05
2019-05-30T06:22:56.080Z,98480.30
2019-05-30T06:25:26.615Z,98480.09
2019-05-30T06:27:51.210Z,98474.18
2019-05-30T06:30:18.258Z,98481.82
2019-05-30T06:32:45.172Z,98473.97
2019-05-30T06:35:12.377Z,98475.95
2019-05-30T06:37:39.085Z,98479.28
2019-05-30T06:40:06.105Z,98473.89
2019-05-30T06:42:32.740Z,98479.94
2019-05-30T06:45:00.392Z,98485.73
2019-05-30T06:47:26.912Z,98483.08
2019-05-30T06:49:53.519Z,98482.88
2019-05-30T06:52:20.867Z,98487.31
2019-05-30T06:54:47.922Z,98488.70
2019-05-30T06:57:14.459Z,98487.11
2019-05-30T06:59:41.047Z,98480.35
2019-05-30T07:02:07.679Z,98481.50
2019-05-30T07:04:50.205Z,98485.06
2019-05-30T07:07:05.990Z,98482.64
2019-05-30T07:09:32.814Z,98484.33
2019-05-30T07:11:59.611Z,98487.09
2019-05-30T07:14:27.270Z,98485.48
2019-05-30T07:16:53.937Z,98488.27
2019-05-30T07:19:20.472Z,98490.50
2019-05-30T07:21:47.011Z,98492.41
2019-05-30T07:24:13.543Z,98491.36
2019-05-30T07:26:40.328Z,98489.75
2019-05-30T07:29:06.960Z,98491.13
2019-05-30T07:31:34.393Z,98497.46
2019-05-30T07:34:01.221Z,98497.22
2019-05-30T07:36:28.232Z,98499.67
2019-05-30T07:38:54.774Z,98495.87
2019-05-30T07:41:21.314Z,98501.84
2019-05-30T07:43:47.841Z,98505.67
2019-05-30T07:46:14.405Z,98506.77
2019-05-30T07:48:40.940Z,98508.37
2019-05-30T07:51:07.972Z,98508.09
2019-05-30T07:53:35.345Z,98507.23
2019-05-30T07:56:01.900Z,98511.53
2019-05-30T07:58:29.037Z,98504.45
2019-05-30T08:00:56.714Z,98504.79
2019-05-30T08:03:23.745Z,98497.75
2019-05-30T08:05:50.725Z,98504.45
2019-05-30T08:08:17.385Z,98506.79
2019-05-30T08:10:44.399Z,98502.53
2019-05-30T08:13:11.059Z,98496.93
2019-05-30T08:15:43.790Z,98497.00
2019-05-30T08:18:06.763Z,98498.37
2019-05-30T08:20:33.948Z,98504.41
2019-05-30T08:23:00.866Z,98501.14
2019-05-30T08:25:27.967Z,98500.06
2019-05-30T08:27:54.596Z,98497.88
2019-05-30T08:30:21.745Z,98492.69
2019-05-30T08:32:48.477Z,98500.98
2019-05-30T08:35:15.362Z,98494.43
2019-05-30T08:37:42.032Z,98495.80
2019-05-30T08:40:10.187Z,98500.47
2019-05-30T08:42:38.364Z,98495.53
2019-05-30T08:45:09.658Z,98489.72
2019-05-30T08:47:36.031Z,98487.78
2019-05-30T08:50:03.310Z,98486.11
2019-05-30T08:52:34.414Z,98488.53
2019-05-30T08:55:01.333Z,98495.62
2019-05-30T08:57:28.049Z,98484.67
2019-05-30T08:59:54.972Z,98484.13
2019-05-30T09:02:21.863Z,98482.18
2019-05-30T09:04:48.524Z,98477.50
2019-05-30T09:07:15.227Z,98480.98
2019-05-30T09:09:42.243Z,98478.98
2019-05-30T09:12:09.002Z,98479.75
2019-05-30T09:14:37.352Z,98475.64
2019-05-30T09:17:04.313Z,98472.86
2019-05-30T09:19:31.430Z,98474.41
2019-05-30T09:21:58.077Z,98474.94
2019-05-30T09:24:25.581Z,98470.77
2019-05-30T09:26:52.508Z,98467.16
2019-05-30T09:29:19.247Z,98459.20
2019-05-30T09:31:46.685Z,98461.89
2019-05-30T09:34:13.797Z,98468.72
2019-05-30T09:36:41.020Z,98458.28
2019-05-30T09:39:08.236Z,98465.88
2019-05-30T09:41:35.034Z,98466.44
2019-05-30T09:44:01.794Z,98464.45
2019-05-30T09:46:28.532Z,98467.17
2019-05-30T09:48:55.180Z,98466.82
2019-05-30T09:51:21.800Z,98461.80
2019-05-30T09:53:48.753Z,98468.75
2019-05-30T09:56:15.838Z,98460.66
2019-05-30T09:58:43.836Z,98459.08
2019-05-30T10:01:10.742Z,98461.36
2019-05-30T10:03:37.402Z,98466.41
2019-05-30T10:06:04.275Z,98462.70
2019-05-30T10:08:31.063Z,98461.20
2019-05-30T10:10:58.268Z,98457.19
2019-05-30T10:13:24.805Z,98458.70
2019-05-30T10:15:52.592Z,98455.35
2019-05-30T10:18:19.309Z,98452.86
2019-05-30T10:20:47.755Z,98452.82
2019-05-30T10:23:14.605Z,98455.41
2019-05-30T10:25:41.324Z,98445.97
2019-05-30T10:28:08.083Z,98447.47
2019-05-30T10:30:34.890Z,98442.74
2019-05-30T10:33:01.511Z,98438.83
2019-05-30T10:35:31.655Z,98440.34
2019-05-30T10:38:01.185Z,98432.25
2019-05-30T10:40:32.109Z,98434.66
2019-05-30T10:42:57.821Z,98430.23
2019-05-30T10:45:26.498Z,98429.36
2019-05-30T10:47:53.761Z,98431.20
2019-05-30T10:50:20.647Z,98432.33
2019-05-30T10:52:47.361Z,98428.09
2019-05-30T10:55:16.098Z,98432.25
2019-05-30T10:57:42.807Z,98431.23
2019-05-30T11:00:11.914Z,98421.78
2019-05-30T11:02:38.871Z,98423.30
2019-05-30T11:05:05.705Z,98415.05
2019-05-30T11:08:00.252Z,98422.69
2019-05-30T11:10:30.488Z,98418.78
2019-05-30T11:13:05.279Z,98413.38
2019-05-30T11:15:25.800Z,98411.09
2019-05-30T11:17:53.357Z,98413.69
2019-05-30T11:20:21.136Z,98411.53
2019-05-30T11:22:48.240Z,98399.05
2019-05-30T11:25:15.118Z,98403.92
2019-05-30T11:27:42.048Z,98399.50
2019-05-30T11:30:09.579Z,98405.02
2019-05-30T11:32:36.388Z,98402.92
2019-05-30T11:35:03.769Z,98398.39
2019-05-30T11:37:30.745Z,98391.66
2019-05-30T11:39:57.551Z,98390.02
2019-05-30T11:42:24.628Z,98394.14
2019-05-30T11:44:51.465Z,98387.38
2019-05-30T11:47:18.258Z,98385.63
2019-05-30T11:49:45.969Z,98382.08
2019-05-30T11:52:12.580Z,98343.42
2019-05-30T11:54:39.235Z,98378.56
2019-05-30T11:57:05.866Z,98373.02
2019-05-30T11:59:32.391Z,98369.36
2019-05-30T12:01:59.095Z,98365.81
2019-05-30T12:04:25.694Z,98362.75
2019-05-30T12:06:53.119Z,98362.45
2019-05-30T12:09:20.369Z,98365.76
2019-05-30T12:11:46.902Z,98367.34
2019-05-30T12:14:13.473Z,98365.13
2019-05-30T12:16:39.999Z,98368.18
2019-05-30T12:19:06.652Z,98366.25
2019-05-30T12:21:33.323Z,98360.26
2019-05-30T12:24:00.362Z,98364.69
2019-05-30T12:26:27.095Z,98361.99
2019-05-30T12:28:54.080Z,98361.48
2019-05-30T12:31:21.129Z,98361.54
2019-05-30T12:33:49.227Z,98361.94
2019-05-30T12:36:16.219Z,98357.08
2019-05-30T12:38:43.209Z,98355.73
2019-05-30T12:41:10.018Z,98353.38
2019-05-30T12:43:37.034Z,98359.19
2019-05-30T12:46:04.076Z,98359.45
2019-05-30T12:48:30.937Z,98350.92
2019-05-30T12:50:57.667Z,98357.00
2019-05-30T12:53:24.317Z,98346.55
2019-05-30T12:55:54.371Z,98353.50
2019-05-30T12:58:21.555Z,98351.62
2019-05-30T13:00:48.371Z,98344.29
2019-05-30T13:03:15.195Z,98351.38
2019-05-30T13:05:42.083Z,98344.55
2019-05-30T13:08:20.594Z,98343.34
2019-05-30T13:10:37.705Z,98344.61
2019-05-30T13:13:06.189Z,98348.63
2019-05-30T13:15:33.165Z,98340.09
2019-05-30T13:18:00.904Z,98346.36
2019-05-30T13:20:28.745Z,98337.79
2019-05-30T13:22:56.288Z,98340.92
2019-05-30T13:25:23.144Z,98338.61
2019-05-30T13:27:49.898Z,98338.54
2019-05-30T13:30:16.863Z,98337.03
2019-05-30T13:32:43.622Z,98331.15
2019-05-30T13:35:12.301Z,98333.92
2019-05-30T13:37:39.080Z,98324.46
2019-05-30T13:40:20.791Z,98329.64
2019-05-30T13:42:35.079Z,98322.92
2019-05-30T13:45:02.163Z,98325.93
2019-05-30T13:47:28.957Z,98324.05
2019-05-30T13:49:55.626Z,98322.92
2019-05-30T13:52:22.285Z,98324.80
2019-05-30T13:54:48.924Z,98325.77
2019-05-30T13:57:16.488Z,98325.05
2019-05-30T13:59:43.242Z,98326.31
2019-05-30T14:02:10.292Z,98327.45
2019-05-30T14:04:37.299Z,98321.38
2019-05-30T14:07:04.268Z,98322.30
2019-05-30T14:09:30.892Z,98320.24
2019-05-30T14:11:58.052Z,98324.08
2019-05-30T14:14:24.623Z,98320.15
2019-05-30T14:16:51.492Z,98314.24
2019-05-30T14:19:18.494Z,98319.09
2019-05-30T14:21:45.329Z,98313.11
2019-05-30T14:24:12.210Z,98318.88
2019-05-30T14:26:38.928Z,98312.77
2019-05-30T14:29:05.792Z,98313.52
2019-05-30T14:31:32.437Z,98311.88
2019-05-30T14:33:59.413Z,98307.73
2019-05-30T14:36:25.974Z,98312.75
2019-05-30T14:38:58.146Z,98318.33
2019-05-30T14:41:21.532Z,98315.95
2019-05-30T14:43:48.280Z,98319.02
2019-05-30T14:46:15.007Z,98323.58
2019-05-30T14:48:42.057Z,98322.89
2019-05-30T14:51:08.745Z,98320.52
2019-05-30T14:53:35.455Z,98318.33
2019-05-30T14:56:02.443Z,98320.77
2019-05-30T14:58:29.220Z,98315.62
2019-05-30T15:00:55.741Z,98308.07
2019-05-30T15:03:22.391Z,98309.24
2019-05-30T15:05:49.570Z,98306.60
2019-05-30T15:08:16.888Z,98304.59
2019-05-30T15:10:43.955Z,98301.70
2019-05-30T15:13:11.678Z,98302.44
2019-05-30T15:15:38.623Z,98304.95
2019-05-30T15:18:05.423Z,98307.07
2019-05-30T15:20:32.165Z,98301.31
2019-05-30T15:22:59.018Z,98297.67
2019-05-30T15:25:25.750Z,98305.23
2019-05-30T15:27:52.484Z,98306.15
2019-05-30T15:30:19.581Z,98306.05
2019-05-30T15:32:46.261Z,98297.31
2019-05-30T15:35:15.540Z,98293.63
2019-05-30T15:37:42.401Z,98297.62
2019-05-30T15:40:09.472Z,98291.38
2019-05-30T15:42:36.316Z,98288.87
2019-05-30T15:45:04.170Z,98289.37
2019-05-30T15:47:30.897Z,98293.31
2019-05-30T15:49:57.537Z,98292.11
2019-05-30T15:52:24.356Z,98293.16
2019-05-30T15:54:51.141Z,98293.98
2019-05-30T15:57:17.897Z,98287.80
2019-05-30T15:59:44.591Z,98286.67
2019-05-30T16:02:11.929Z,98286.41
2019-05-30T16:04:38.772Z,98292.19
2019-05-30T16:07:05.538Z,98284.17
2019-05-30T16:09:46.327Z,98285.05
2019-05-30T16:12:00.771Z,98286.33
2019-05-30T16:14:27.519Z,98297.56
2019-05-30T16:16:54.252Z,98285.80
2019-05-30T16:19:24.764Z,98284.84
2019-05-30T16:21:49.480Z,98285.23
2019-05-30T16:24:16.448Z,98281.09
2019-05-30T16:26:43.073Z,98278.48
2019-05-30T16:29:09.991Z,98271.17
2019-05-30T16:31:36.943Z,98276.75
2019-05-30T16:34:03.681Z,98281.83
2019-05-30T16:36:32.071Z,98271.87
2019-05-30T17:54:33.013Z,98285.89
2019-05-30T17:56:59.638Z,98284.41
2019-05-30T17:59:26.474Z,98283.95
2019-05-30T18:01:53.035Z,98280.53
2019-05-30T18:04:20.373Z,98284.45
2019-05-30T18:06:47.355Z,98290.38
2019-05-30T18:09:14.109Z,98285.33
2019-05-30T18:11:41.043Z,98285.94
2019-05-30T18:14:07.961Z,98282.73
2019-05-30T18:16:34.489Z,98291.14
2019-05-30T18:19:01.176Z,98291.58
2019-05-30T18:21:27.840Z,98293.41
2019-05-30T18:23:54.371Z,98290.86
2019-05-30T18:26:21.476Z,98295.72
2019-05-30T18:28:48.311Z,98301.66
2019-05-30T18:31:15.018Z,98297.98
2019-05-30T18:33:41.786Z,98297.61
2019-05-30T18:36:08.495Z,98295.30
2019-05-30T18:38:35.290Z,98302.08
2019-05-30T18:41:10.731Z,98301.17
2019-05-30T18:43:31.478Z,98301.68
2019-05-30T18:45:58.168Z,98298.95
2019-05-30T18:48:25.297Z,98301.44
2019-05-30T18:50:52.342Z,98302.17
2019-05-30T18:53:18.982Z,98295.27
2019-05-30T18:55:45.757Z,98300.92
2019-05-30T18:58:12.409Z,98302.23
2019-05-30T19:00:39.230Z,98302.77
2019-05-30T19:03:05.970Z,98309.20
2019-05-30T19:05:32.709Z,98308.00
2019-05-30T19:07:59.194Z,98304.03
2019-05-30T19:10:27.814Z,98304.97
2019-05-30T19:12:54.581Z,98307.02
2019-05-30T19:15:21.626Z,98312.51
2019-05-30T19:17:48.141Z,98318.84
2019-05-30T19:20:15.543Z,98322.11
2019-05-30T19:22:42.210Z,98317.78
2019-05-30T19:25:09.184Z,98326.59
2019-05-30T19:27:37.095Z,98331.83
2019-05-30T19:30:05.175Z,98338.13
2019-05-30T19:32:32.709Z,98343.62
2019-05-30T19:34:59.800Z,98342.03
2019-05-30T19:37:27.048Z,98345.63
2019-05-30T19:39:53.635Z,98352.45
2019-05-30T19:42:20.203Z,98352.73
2019-05-30T19:44:46.776Z,98351.38
2019-05-30T19:47:13.553Z,98358.80
2019-05-30T19:49:40.225Z,98357.45
2019-05-30T19:52:06.970Z,98362.39
2019-05-30T19:54:33.525Z,98358.32
2019-05-30T19:57:00.242Z,98361.07
2019-05-30T19:59:26.886Z,98369.85
2019-05-30T20:01:53.545Z,98375.05
2019-05-30T20:04:20.482Z,98370.97
2019-05-30T20:06:47.116Z,98373.76
2019-05-30T20:09:13.845Z,98375.67
2019-05-30T20:11:41.574Z,98372.08
2019-05-30T20:14:08.290Z,98372.67
2019-05-30T20:16:35.754Z,98379.80
2019-05-30T20:19:02.589Z,98373.78
2019-05-30T20:21:29.275Z,98380.88
2019-05-30T20:23:59.419Z,98379.53
2019-05-30T20:26:24.785Z,98385.00
2019-05-30T20:28:51.719Z,98383.92
2019-05-30T20:31:18.440Z,98388.28
2019-05-30T20:33:45.129Z,98388.02
2019-05-30T20:36:11.855Z,98382.83
2019-05-30T20:38:38.689Z,98387.20
2019-05-30T20:41:05.380Z,98385.55
2019-05-30T20:43:33.295Z,98389.66
2019-05-30T20:46:00.116Z,98391.33
2019-05-30T20:48:26.978Z,98397.89
2019-05-30T20:50:53.696Z,98390.54
2019-05-30T20:53:20.646Z,98396.88
2019-05-30T20:55:47.754Z,98401.80
2019-05-30T20:58:14.442Z,98399.62
2019-05-30T21:00:42.170Z,98395.81
2019-05-30T21:03:09.151Z,98410.06
2019-05-30T21:05:35.904Z,98402.42
2019-05-30T21:08:05.826Z,98407.08
2019-05-30T21:10:32.335Z,98408.73
2019-05-30T21:12:59.379Z,98409.29
2019-05-30T21:15:26.053Z,98412.06
2019-05-30T21:17:52.748Z,98414.79
2019-05-30T21:20:19.394Z,98416.70
2019-05-30T21:22:46.712Z,98411.80
2019-05-30T21:25:14.266Z,98411.80
2019-05-30T21:27:40.964Z,98407.42
2019-05-30T21:30:07.785Z,98409.88
2019-05-30T21:32:34.577Z,98405.50
2019-05-30T21:35:01.393Z,98403.29
2019-05-30T21:37:29.183Z,98406.29
2019-05-30T21:39:55.884Z,98411.75
2019-05-30T21:42:22.541Z,98410.92
2019-05-30T21:44:52.564Z,98410.66
2019-05-30T21:47:17.777Z,98416.65
2019-05-30T21:49:44.921Z,98413.09
2019-05-30T21:52:11.681Z,98418.56
2019-05-30T21:54:39.694Z,98413.92
2019-05-30T21:57:06.470Z,98414.20
2019-05-30T21:59:33.024Z,98417.73
2019-05-30T22:01:59.917Z,98415.83
2019-05-30T22:04:26.694Z,98409.56
2019-05-30T22:06:53.301Z,98412.02
2019-05-30T22:09:20.020Z,98416.38
2019-05-30T22:11:47.686Z,98415.84
2019-05-30T22:14:14.270Z,98406.56
2019-05-30T22:16:41.776Z,98412.84
2019-05-30T22:19:08.460Z,98413.38
2019-05-30T22:21:35.074Z,98413.11
2019-05-30T22:24:01.677Z,98417.78
2019-05-30T22:26:28.302Z,98410.97
2019-05-30T22:28:54.926Z,98413.70
2019-05-30T22:31:21.535Z,98414.24
2019-05-30T22:33:48.755Z,98414.79
2019-05-30T22:36:15.379Z,98412.88
2019-05-30T22:38:42.740Z,98415.06
2019-05-30T22:41:09.564Z,98413.16
2019-05-30T22:43:36.447Z,98412.34
2019-05-30T22:46:03.213Z,98417.25
2019-05-30T22:48:29.728Z,98413.70
2019-05-30T22:50:57.051Z,98410.16
2019-05-30T22:53:23.831Z,98402.78
2019-05-30T22:55:51.978Z,98404.42
2019-05-30T22:58:19.064Z,98404.70
2019-05-30T23:00:46.006Z,98397.61
2019-05-30T23:03:12.732Z,98401.70
2019-05-30T23:05:39.363Z,98397.33
2019-05-30T23:08:05.906Z,98399.80
2019-05-30T23:10:32.534Z,98400.34
2019-05-30T23:15:39.125Z,98393.79
2019-05-30T23:18:05.851Z,98402.53
2019-05-30T23:20:32.447Z,98400.07
2019-05-30T23:22:59.064Z,98403.62
2019-05-30T23:25:25.675Z,98397.07
2019-05-30T23:27:52.261Z,98394.89
2019-05-30T23:30:19.974Z,98395.71
2019-05-30T23:32:46.515Z,98395.98
2019-05-30T23:35:13.127Z,98391.34
2019-05-30T23:37:39.795Z,98395.16
2019-05-30T23:40:06.631Z,98393.52
2019-05-30T23:42:33.208Z,98400.62
2019-05-30T23:44:59.843Z,98393.80
2019-05-30T23:47:26.599Z,98396.52
2019-05-30T23:49:53.808Z,98391.61
2019-05-30T23:52:20.533Z,98393.80
2019-05-30T23:54:47.098Z,98392.98
2019-05-30T23:57:13.614Z,98390.52
2019-05-30T23:59:40.262Z,98388.88
